sensor_id;sensor_type;location;lat;lon;timestamp;P1;durP1;ratioP1;P2;durP2;ratioP2
8938;SDS011;4504;48.810;9.172;2022-08-01T00:01:15;101.20;;;1.77;;
8938;SDS011;4504;48.810;9.172;2022-08-01T00:03:43;104.60;;;2.17;;
8938;SDS011;4504;48.810;9.172;2022-08-01T00:06:10;101.57;;;1.83;;
8938;SDS011;4504;48.810;9.172;2022-08-01T00:08:37;100.67;;;2.00;;
8938;SDS011;4504;48.810;9.172;2022-08-01T00:11:05;99.90;;;1.90;;
8938;SDS011;4504;48.810;9.172;2022-08-01T00:13:34;99.87;;;1.90;;
8938;SDS011;4504;48.810;9.172;2022-08-01T00:16:01;100.60;;;1.80;;
8938;SDS011;4504;48.810;9.172;2022-08-01T00:18:28;100.80;;;1.70;;
8938;SDS011;4504;48.810;9.172;2022-08-01T00:20:55;100.80;;;2.27;;
8938;SDS011;4504;48.810;9.172;2022-08-01T00:23:22;101.43;;;2.00;;
8938;SDS011;4504;48.810;9.172;2022-08-01T00:25:49;101.87;;;2.07;;
8938;SDS011;4504;48.810;9.172;2022-08-01T00:28:18;100.40;;;1.90;;
8938;SDS011;4504;48.810;9.172;2022-08-01T00:30:45;101.37;;;1.80;;
8938;SDS011;4504;48.810;9.172;2022-08-01T00:33:12;101.67;;;1.80;;
8938;SDS011;4504;48.810;9.172;2022-08-01T00:35:39;101.47;;;1.97;;
8938;SDS011;4504;48.810;9.172;2022-08-01T00:38:06;101.47;;;2.03;;
8938;SDS011;4504;48.810;9.172;2022-08-01T00:40:33;101.17;;;2.20;;
8938;SDS011;4504;48.810;9.172;2022-08-01T00:43:00;100.57;;;1.83;;
8938;SDS011;4504;48.810;9.172;2022-08-01T00:45:28;100.70;;;1.90;;
8938;SDS011;4504;48.810;9.172;2022-08-01T00:47:55;101.80;;;2.27;;
8938;SDS011;4504;48.810;9.172;2022-08-01T00:50:22;101.10;;;2.00;;
8938;SDS011;4504;48.810;9.172;2022-08-01T00:52:50;101.20;;;1.87;;
8938;SDS011;4504;48.810;9.172;2022-08-01T00:55:17;101.47;;;2.10;;
8938;SDS011;4504;48.810;9.172;2022-08-01T00:57:46;101.37;;;2.30;;
8938;SDS011;4504;48.810;9.172;2022-08-01T01:00:14;101.67;;;2.10;;
8938;SDS011;4504;48.810;9.172;2022-08-01T01:02:42;101.77;;;2.27;;
8938;SDS011;4504;48.810;9.172;2022-08-01T01:05:10;101.83;;;2.17;;
8938;SDS011;4504;48.810;9.172;2022-08-01T01:07:39;103.17;;;2.23;;
8938;SDS011;4504;48.810;9.172;2022-08-01T01:10:15;102.90;;;2.13;;
8938;SDS011;4504;48.810;9.172;2022-08-01T01:12:48;102.20;;;2.30;;
8938;SDS011;4504;48.810;9.172;2022-08-01T01:15:20;101.87;;;2.00;;
8938;SDS011;4504;48.810;9.172;2022-08-01T01:17:55;100.43;;;2.00;;
8938;SDS011;4504;48.810;9.172;2022-08-01T01:20:26;101.80;;;2.40;;
8938;SDS011;4504;48.810;9.172;2022-08-01T01:23:00;103.27;;;2.10;;
8938;SDS011;4504;48.810;9.172;2022-08-01T01:25:40;101.70;;;2.20;;
8938;SDS011;4504;48.810;9.172;2022-08-01T01:28:20;102.90;;;2.20;;
8938;SDS011;4504;48.810;9.172;2022-08-01T01:30:57;102.77;;;2.30;;
8938;SDS011;4504;48.810;9.172;2022-08-01T01:33:26;101.47;;;2.10;;
8938;SDS011;4504;48.810;9.172;2022-08-01T01:35:57;102.00;;;1.93;;
8938;SDS011;4504;48.810;9.172;2022-08-01T01:38:32;102.07;;;2.20;;
8938;SDS011;4504;48.810;9.172;2022-08-01T01:41:02;101.80;;;2.23;;
8938;SDS011;4504;48.810;9.172;2022-08-01T01:43:31;103.20;;;2.37;;
8938;SDS011;4504;48.810;9.172;2022-08-01T01:46:01;102.20;;;2.00;;
8938;SDS011;4504;48.810;9.172;2022-08-01T01:48:29;103.00;;;2.00;;
8938;SDS011;4504;48.810;9.172;2022-08-01T01:50:58;103.87;;;2.53;;
8938;SDS011;4504;48.810;9.172;2022-08-01T01:53:26;101.40;;;1.90;;
8938;SDS011;4504;48.810;9.172;2022-08-01T01:55:56;102.13;;;2.23;;
8938;SDS011;4504;48.810;9.172;2022-08-01T01:58:24;102.07;;;1.97;;
8938;SDS011;4504;48.810;9.172;2022-08-01T02:00:55;102.77;;;2.20;;
8938;SDS011;4504;48.810;9.172;2022-08-01T02:03:26;100.77;;;1.90;;
8938;SDS011;4504;48.810;9.172;2022-08-01T02:05:54;102.67;;;2.10;;
8938;SDS011;4504;48.810;9.172;2022-08-01T02:08:22;101.83;;;2.00;;
8938;SDS011;4504;48.810;9.172;2022-08-01T02:10:51;102.30;;;2.17;;
8938;SDS011;4504;48.810;9.172;2022-08-01T02:13:34;101.57;;;2.20;;
8938;SDS011;4504;48.810;9.172;2022-08-01T02:16:04;101.90;;;2.13;;
8938;SDS011;4504;48.810;9.172;2022-08-01T02:18:33;101.70;;;2.07;;
8938;SDS011;4504;48.810;9.172;2022-08-01T02:21:00;102.00;;;2.37;;
8938;SDS011;4504;48.810;9.172;2022-08-01T02:23:31;102.57;;;2.47;;
8938;SDS011;4504;48.810;9.172;2022-08-01T02:26:02;102.60;;;2.20;;
8938;SDS011;4504;48.810;9.172;2022-08-01T02:28:36;102.90;;;2.40;;
8938;SDS011;4504;48.810;9.172;2022-08-01T02:31:14;102.57;;;2.23;;
8938;SDS011;4504;48.810;9.172;2022-08-01T02:33:48;102.77;;;2.47;;
8938;SDS011;4504;48.810;9.172;2022-08-01T02:36:21;103.17;;;2.40;;
8938;SDS011;4504;48.810;9.172;2022-08-01T02:38:52;101.70;;;2.23;;
8938;SDS011;4504;48.810;9.172;2022-08-01T02:41:22;101.20;;;2.13;;
8938;SDS011;4504;48.810;9.172;2022-08-01T02:43:51;102.43;;;2.20;;
8938;SDS011;4504;48.810;9.172;2022-08-01T02:46:23;101.67;;;2.03;;
8938;SDS011;4504;48.810;9.172;2022-08-01T02:48:55;102.93;;;2.30;;
8938;SDS011;4504;48.810;9.172;2022-08-01T02:51:24;101.03;;;2.17;;
8938;SDS011;4504;48.810;9.172;2022-08-01T02:53:53;101.90;;;2.10;;
8938;SDS011;4504;48.810;9.172;2022-08-01T02:56:21;103.77;;;2.20;;
8938;SDS011;4504;48.810;9.172;2022-08-01T02:59:00;101.67;;;2.20;;
8938;SDS011;4504;48.810;9.172;2022-08-01T03:01:30;101.97;;;2.10;;
8938;SDS011;4504;48.810;9.172;2022-08-01T03:04:00;102.73;;;2.50;;
8938;SDS011;4504;48.810;9.172;2022-08-01T03:06:28;102.43;;;2.03;;
8938;SDS011;4504;48.810;9.172;2022-08-01T03:08:56;101.40;;;2.43;;
8938;SDS011;4504;48.810;9.172;2022-08-01T03:11:24;100.87;;;2.23;;
8938;SDS011;4504;48.810;9.172;2022-08-01T03:13:53;103.73;;;2.60;;
8938;SDS011;4504;48.810;9.172;2022-08-01T03:16:22;101.83;;;2.30;;
8938;SDS011;4504;48.810;9.172;2022-08-01T03:18:51;102.27;;;2.20;;
8938;SDS011;4504;48.810;9.172;2022-08-01T03:21:23;102.03;;;2.20;;
8938;SDS011;4504;48.810;9.172;2022-08-01T03:23:51;103.70;;;2.30;;
8938;SDS011;4504;48.810;9.172;2022-08-01T03:26:23;102.47;;;2.50;;
8938;SDS011;4504;48.810;9.172;2022-08-01T03:28:55;104.00;;;2.30;;
8938;SDS011;4504;48.810;9.172;2022-08-01T03:31:25;102.20;;;2.00;;
8938;SDS011;4504;48.810;9.172;2022-08-01T03:33:53;103.10;;;2.23;;
8938;SDS011;4504;48.810;9.172;2022-08-01T03:36:20;103.20;;;2.30;;
8938;SDS011;4504;48.810;9.172;2022-08-01T03:38:53;102.27;;;2.33;;
8938;SDS011;4504;48.810;9.172;2022-08-01T03:41:24;102.67;;;2.20;;
8938;SDS011;4504;48.810;9.172;2022-08-01T03:43:55;102.73;;;2.30;;
8938;SDS011;4504;48.810;9.172;2022-08-01T03:46:26;100.93;;;2.30;;
8938;SDS011;4504;48.810;9.172;2022-08-01T03:49:03;101.67;;;2.10;;
8938;SDS011;4504;48.810;9.172;2022-08-01T03:51:36;102.77;;;2.20;;
8938;SDS011;4504;48.810;9.172;2022-08-01T03:54:04;100.97;;;2.20;;
8938;SDS011;4504;48.810;9.172;2022-08-01T03:56:32;102.10;;;2.20;;
8938;SDS011;4504;48.810;9.172;2022-08-01T03:59:01;104.03;;;2.30;;
8938;SDS011;4504;48.810;9.172;2022-08-01T04:01:29;102.10;;;2.17;;
8938;SDS011;4504;48.810;9.172;2022-08-01T04:03:58;101.80;;;2.13;;
8938;SDS011;4504;48.810;9.172;2022-08-01T04:06:26;101.47;;;2.30;;
8938;SDS011;4504;48.810;9.172;2022-08-01T04:08:55;102.10;;;2.10;;
8938;SDS011;4504;48.810;9.172;2022-08-01T04:11:23;103.87;;;2.17;;
8938;SDS011;4504;48.810;9.172;2022-08-01T04:13:52;100.57;;;1.90;;
8938;SDS011;4504;48.810;9.172;2022-08-01T04:16:20;102.20;;;2.00;;
8938;SDS011;4504;48.810;9.172;2022-08-01T04:18:47;101.50;;;2.07;;
8938;SDS011;4504;48.810;9.172;2022-08-01T04:21:15;102.27;;;2.17;;
8938;SDS011;4504;48.810;9.172;2022-08-01T04:23:44;101.67;;;1.90;;
8938;SDS011;4504;48.810;9.172;2022-08-01T04:26:15;101.17;;;1.97;;
8938;SDS011;4504;48.810;9.172;2022-08-01T04:28:43;103.60;;;2.00;;
8938;SDS011;4504;48.810;9.172;2022-08-01T04:31:12;102.57;;;1.83;;
8938;SDS011;4504;48.810;9.172;2022-08-01T04:33:43;101.60;;;1.90;;
8938;SDS011;4504;48.810;9.172;2022-08-01T04:36:12;105.50;;;2.10;;
8938;SDS011;4504;48.810;9.172;2022-08-01T04:38:42;102.60;;;2.00;;
8938;SDS011;4504;48.810;9.172;2022-08-01T04:41:12;101.87;;;2.10;;
8938;SDS011;4504;48.810;9.172;2022-08-01T04:43:41;105.17;;;2.20;;
8938;SDS011;4504;48.810;9.172;2022-08-01T04:46:09;101.80;;;2.10;;
8938;SDS011;4504;48.810;9.172;2022-08-01T04:48:37;102.03;;;2.17;;
8938;SDS011;4504;48.810;9.172;2022-08-01T04:51:10;102.43;;;2.00;;
8938;SDS011;4504;48.810;9.172;2022-08-01T04:53:41;102.10;;;1.80;;
8938;SDS011;4504;48.810;9.172;2022-08-01T04:56:08;101.70;;;2.10;;
8938;SDS011;4504;48.810;9.172;2022-08-01T04:58:38;100.97;;;2.00;;
8938;SDS011;4504;48.810;9.172;2022-08-01T05:01:07;103.30;;;2.30;;
8938;SDS011;4504;48.810;9.172;2022-08-01T05:03:35;103.57;;;2.30;;
8938;SDS011;4504;48.810;9.172;2022-08-01T05:06:02;102.70;;;2.17;;
8938;SDS011;4504;48.810;9.172;2022-08-01T05:08:29;101.57;;;2.00;;
8938;SDS011;4504;48.810;9.172;2022-08-01T05:10:57;101.67;;;2.07;;
8938;SDS011;4504;48.810;9.172;2022-08-01T05:13:24;101.00;;;1.80;;
8938;SDS011;4504;48.810;9.172;2022-08-01T05:15:51;102.07;;;2.13;;
8938;SDS011;4504;48.810;9.172;2022-08-01T05:18:20;102.57;;;2.00;;
8938;SDS011;4504;48.810;9.172;2022-08-01T05:20:47;102.07;;;1.90;;
8938;SDS011;4504;48.810;9.172;2022-08-01T05:23:14;101.60;;;1.90;;
8938;SDS011;4504;48.810;9.172;2022-08-01T05:25:41;101.20;;;2.10;;
8938;SDS011;4504;48.810;9.172;2022-08-01T05:28:08;103.80;;;2.23;;
8938;SDS011;4504;48.810;9.172;2022-08-01T05:30:35;101.63;;;1.90;;
8938;SDS011;4504;48.810;9.172;2022-08-01T05:33:02;102.50;;;2.13;;
8938;SDS011;4504;48.810;9.172;2022-08-01T05:35:30;102.10;;;2.10;;
8938;SDS011;4504;48.810;9.172;2022-08-01T05:37:57;101.57;;;2.10;;
8938;SDS011;4504;48.810;9.172;2022-08-01T05:40:24;100.67;;;1.80;;
8938;SDS011;4504;48.810;9.172;2022-08-01T05:42:51;102.00;;;1.80;;
8938;SDS011;4504;48.810;9.172;2022-08-01T05:45:18;102.50;;;2.20;;
8938;SDS011;4504;48.810;9.172;2022-08-01T05:47:45;101.97;;;1.90;;
8938;SDS011;4504;48.810;9.172;2022-08-01T05:50:12;100.80;;;1.97;;
8938;SDS011;4504;48.810;9.172;2022-08-01T05:52:41;100.30;;;1.80;;
8938;SDS011;4504;48.810;9.172;2022-08-01T05:55:08;101.87;;;2.20;;
8938;SDS011;4504;48.810;9.172;2022-08-01T05:57:35;101.07;;;1.83;;
8938;SDS011;4504;48.810;9.172;2022-08-01T06:00:02;100.07;;;1.93;;
8938;SDS011;4504;48.810;9.172;2022-08-01T06:02:39;100.50;;;1.70;;
8938;SDS011;4504;48.810;9.172;2022-08-01T06:05:07;100.60;;;1.80;;
8938;SDS011;4504;48.810;9.172;2022-08-01T06:07:35;99.97;;;1.90;;
8938;SDS011;4504;48.810;9.172;2022-08-01T06:10:05;100.50;;;1.80;;
8938;SDS011;4504;48.810;9.172;2022-08-01T06:12:33;101.13;;;1.80;;
8938;SDS011;4504;48.810;9.172;2022-08-01T06:15:01;100.37;;;1.80;;
8938;SDS011;4504;48.810;9.172;2022-08-01T06:17:28;101.50;;;2.10;;
8938;SDS011;4504;48.810;9.172;2022-08-01T06:19:55;101.17;;;1.70;;
8938;SDS011;4504;48.810;9.172;2022-08-01T06:22:22;100.90;;;1.80;;
8938;SDS011;4504;48.810;9.172;2022-08-01T06:24:49;100.70;;;2.00;;
8938;SDS011;4504;48.810;9.172;2022-08-01T06:27:18;99.33;;;1.70;;
8938;SDS011;4504;48.810;9.172;2022-08-01T06:29:45;100.07;;;1.80;;
8938;SDS011;4504;48.810;9.172;2022-08-01T06:32:12;100.93;;;1.53;;
8938;SDS011;4504;48.810;9.172;2022-08-01T06:34:39;99.27;;;1.70;;
8938;SDS011;4504;48.810;9.172;2022-08-01T06:37:06;100.20;;;1.77;;
8938;SDS011;4504;48.810;9.172;2022-08-01T06:39:33;100.70;;;2.00;;
8938;SDS011;4504;48.810;9.172;2022-08-01T06:42:00;100.40;;;1.73;;
8938;SDS011;4504;48.810;9.172;2022-08-01T06:44:29;100.43;;;1.70;;
8938;SDS011;4504;48.810;9.172;2022-08-01T06:46:56;100.40;;;1.60;;
8938;SDS011;4504;48.810;9.172;2022-08-01T06:49:23;100.90;;;1.80;;
8938;SDS011;4504;48.810;9.172;2022-08-01T06:51:51;100.27;;;1.80;;
8938;SDS011;4504;48.810;9.172;2022-08-01T06:54:18;101.47;;;1.70;;
8938;SDS011;4504;48.810;9.172;2022-08-01T06:56:45;106.00;;;1.80;;
8938;SDS011;4504;48.810;9.172;2022-08-01T06:59:12;102.80;;;2.10;;
8938;SDS011;4504;48.810;9.172;2022-08-01T07:01:40;99.27;;;1.47;;
8938;SDS011;4504;48.810;9.172;2022-08-01T07:04:07;100.43;;;1.70;;
8938;SDS011;4504;48.810;9.172;2022-08-01T07:06:34;99.90;;;1.60;;
8938;SDS011;4504;48.810;9.172;2022-08-01T07:09:01;101.20;;;1.80;;
8938;SDS011;4504;48.810;9.172;2022-08-01T07:11:28;100.60;;;1.90;;
8938;SDS011;4504;48.810;9.172;2022-08-01T07:13:55;101.20;;;2.00;;
8938;SDS011;4504;48.810;9.172;2022-08-01T07:16:24;100.37;;;1.70;;
8938;SDS011;4504;48.810;9.172;2022-08-01T07:18:52;101.27;;;1.80;;
8938;SDS011;4504;48.810;9.172;2022-08-01T07:21:19;100.60;;;1.73;;
8938;SDS011;4504;48.810;9.172;2022-08-01T07:23:46;100.87;;;1.90;;
8938;SDS011;4504;48.810;9.172;2022-08-01T07:26:13;100.37;;;1.80;;
8938;SDS011;4504;48.810;9.172;2022-08-01T07:28:40;101.87;;;1.80;;
8938;SDS011;4504;48.810;9.172;2022-08-01T07:31:07;100.57;;;1.70;;
8938;SDS011;4504;48.810;9.172;2022-08-01T07:33:34;102.13;;;1.97;;
8938;SDS011;4504;48.810;9.172;2022-08-01T07:36:03;100.30;;;1.67;;
8938;SDS011;4504;48.810;9.172;2022-08-01T07:38:30;99.80;;;1.80;;
8938;SDS011;4504;48.810;9.172;2022-08-01T07:40:57;99.30;;;1.70;;
8938;SDS011;4504;48.810;9.172;2022-08-01T07:43:24;100.30;;;1.90;;
8938;SDS011;4504;48.810;9.172;2022-08-01T07:45:51;101.90;;;1.90;;
8938;SDS011;4504;48.810;9.172;2022-08-01T07:48:18;103.67;;;1.90;;
8938;SDS011;4504;48.810;9.172;2022-08-01T07:50:49;99.87;;;1.77;;
8938;SDS011;4504;48.810;9.172;2022-08-01T07:53:17;100.00;;;1.67;;
8938;SDS011;4504;48.810;9.172;2022-08-01T07:55:44;101.07;;;1.70;;
8938;SDS011;4504;48.810;9.172;2022-08-01T07:58:11;98.97;;;1.50;;
8938;SDS011;4504;48.810;9.172;2022-08-01T08:00:38;100.37;;;1.90;;
8938;SDS011;4504;48.810;9.172;2022-08-01T08:03:05;101.67;;;1.90;;
8938;SDS011;4504;48.810;9.172;2022-08-01T08:05:32;100.47;;;1.80;;
8938;SDS011;4504;48.810;9.172;2022-08-01T08:08:00;98.97;;;1.70;;
8938;SDS011;4504;48.810;9.172;2022-08-01T08:10:28;101.30;;;2.03;;
8938;SDS011;4504;48.810;9.172;2022-08-01T08:12:55;98.57;;;1.70;;
8938;SDS011;4504;48.810;9.172;2022-08-01T08:15:22;102.20;;;1.80;;
8938;SDS011;4504;48.810;9.172;2022-08-01T08:17:49;100.13;;;1.90;;
8938;SDS011;4504;48.810;9.172;2022-08-01T08:20:16;99.80;;;1.83;;
8938;SDS011;4504;48.810;9.172;2022-08-01T08:22:44;97.57;;;1.57;;
8938;SDS011;4504;48.810;9.172;2022-08-01T08:25:11;98.77;;;1.50;;
8938;SDS011;4504;48.810;9.172;2022-08-01T08:27:39;100.20;;;2.00;;
8938;SDS011;4504;48.810;9.172;2022-08-01T08:30:06;99.67;;;1.50;;
8938;SDS011;4504;48.810;9.172;2022-08-01T08:32:36;99.90;;;1.87;;
8938;SDS011;4504;48.810;9.172;2022-08-01T08:35:03;101.30;;;1.80;;
8938;SDS011;4504;48.810;9.172;2022-08-01T08:37:31;101.87;;;1.83;;
8938;SDS011;4504;48.810;9.172;2022-08-01T08:39:58;99.17;;;1.50;;
8938;SDS011;4504;48.810;9.172;2022-08-01T08:42:25;98.63;;;1.70;;
8938;SDS011;4504;48.810;9.172;2022-08-01T08:44:57;99.57;;;1.70;;
8938;SDS011;4504;48.810;9.172;2022-08-01T08:47:24;98.27;;;1.70;;
8938;SDS011;4504;48.810;9.172;2022-08-01T08:49:54;99.77;;;1.87;;
8938;SDS011;4504;48.810;9.172;2022-08-01T08:52:22;99.30;;;2.17;;
8938;SDS011;4504;48.810;9.172;2022-08-01T08:54:50;98.77;;;2.20;;
8938;SDS011;4504;48.810;9.172;2022-08-01T08:57:18;99.50;;;1.93;;
8938;SDS011;4504;48.810;9.172;2022-08-01T08:59:47;99.90;;;2.30;;
8938;SDS011;4504;48.810;9.172;2022-08-01T09:02:18;98.40;;;1.90;;
8938;SDS011;4504;48.810;9.172;2022-08-01T09:04:46;98.90;;;2.10;;
8938;SDS011;4504;48.810;9.172;2022-08-01T09:07:14;98.20;;;2.20;;
8938;SDS011;4504;48.810;9.172;2022-08-01T09:09:41;99.07;;;1.73;;
8938;SDS011;4504;48.810;9.172;2022-08-01T09:12:08;99.43;;;2.17;;
8938;SDS011;4504;48.810;9.172;2022-08-01T09:14:36;98.70;;;2.00;;
8938;SDS011;4504;48.810;9.172;2022-08-01T09:17:11;99.77;;;2.40;;
8938;SDS011;4504;48.810;9.172;2022-08-01T09:19:40;105.50;;;2.50;;
8938;SDS011;4504;48.810;9.172;2022-08-01T09:22:09;99.50;;;2.20;;
8938;SDS011;4504;48.810;9.172;2022-08-01T09:24:38;99.03;;;2.10;;
8938;SDS011;4504;48.810;9.172;2022-08-01T09:27:15;99.87;;;2.07;;
8938;SDS011;4504;48.810;9.172;2022-08-01T09:29:43;100.37;;;2.30;;
8938;SDS011;4504;48.810;9.172;2022-08-01T09:32:11;107.97;;;2.50;;
8938;SDS011;4504;48.810;9.172;2022-08-01T09:34:39;99.87;;;1.90;;
8938;SDS011;4504;48.810;9.172;2022-08-01T09:37:06;98.50;;;1.80;;
8938;SDS011;4504;48.810;9.172;2022-08-01T09:39:34;100.03;;;2.07;;
8938;SDS011;4504;48.810;9.172;2022-08-01T09:42:18;98.90;;;2.10;;
8938;SDS011;4504;48.810;9.172;2022-08-01T09:44:46;99.27;;;2.07;;
8938;SDS011;4504;48.810;9.172;2022-08-01T09:47:14;99.13;;;2.20;;
8938;SDS011;4504;48.810;9.172;2022-08-01T09:49:43;99.03;;;2.30;;
8938;SDS011;4504;48.810;9.172;2022-08-01T09:52:13;98.67;;;1.93;;
8938;SDS011;4504;48.810;9.172;2022-08-01T09:54:42;98.93;;;1.80;;
8938;SDS011;4504;48.810;9.172;2022-08-01T09:57:11;99.73;;;2.03;;
8938;SDS011;4504;48.810;9.172;2022-08-01T09:59:40;98.90;;;2.20;;
8938;SDS011;4504;48.810;9.172;2022-08-01T10:02:09;97.83;;;2.10;;
8938;SDS011;4504;48.810;9.172;2022-08-01T10:04:49;97.37;;;2.03;;
8938;SDS011;4504;48.810;9.172;2022-08-01T10:07:18;100.07;;;2.37;;
8938;SDS011;4504;48.810;9.172;2022-08-01T10:09:45;98.87;;;2.03;;
8938;SDS011;4504;48.810;9.172;2022-08-01T10:12:13;99.57;;;2.13;;
8938;SDS011;4504;48.810;9.172;2022-08-01T10:14:41;101.70;;;2.47;;
8938;SDS011;4504;48.810;9.172;2022-08-01T10:17:11;97.97;;;2.40;;
8938;SDS011;4504;48.810;9.172;2022-08-01T10:19:40;99.23;;;2.07;;
8938;SDS011;4504;48.810;9.172;2022-08-01T10:22:10;99.03;;;2.07;;
8938;SDS011;4504;48.810;9.172;2022-08-01T10:24:42;98.27;;;2.00;;
8938;SDS011;4504;48.810;9.172;2022-08-01T10:27:11;97.87;;;1.70;;
8938;SDS011;4504;48.810;9.172;2022-08-01T10:29:42;99.00;;;1.97;;
8938;SDS011;4504;48.810;9.172;2022-08-01T10:32:12;97.97;;;2.00;;
8938;SDS011;4504;48.810;9.172;2022-08-01T10:34:39;97.97;;;1.90;;
8938;SDS011;4504;48.810;9.172;2022-08-01T10:37:07;97.50;;;1.50;;
8938;SDS011;4504;48.810;9.172;2022-08-01T10:39:36;95.27;;;1.57;;
8938;SDS011;4504;48.810;9.172;2022-08-01T10:42:05;97.67;;;1.80;;
8938;SDS011;4504;48.810;9.172;2022-08-01T10:44:35;98.03;;;1.97;;
8938;SDS011;4504;48.810;9.172;2022-08-01T10:47:04;97.13;;;1.73;;
8938;SDS011;4504;48.810;9.172;2022-08-01T10:49:36;97.57;;;2.07;;
8938;SDS011;4504;48.810;9.172;2022-08-01T10:52:13;96.97;;;1.90;;
8938;SDS011;4504;48.810;9.172;2022-08-01T10:54:42;98.70;;;2.10;;
8938;SDS011;4504;48.810;9.172;2022-08-01T10:57:10;98.40;;;2.47;;
8938;SDS011;4504;48.810;9.172;2022-08-01T10:59:47;98.47;;;1.80;;
8938;SDS011;4504;48.810;9.172;2022-08-01T11:02:25;97.17;;;1.80;;
8938;SDS011;4504;48.810;9.172;2022-08-01T11:04:54;96.87;;;1.87;;
8938;SDS011;4504;48.810;9.172;2022-08-01T11:07:24;97.57;;;2.13;;
8938;SDS011;4504;48.810;9.172;2022-08-01T11:10:08;97.60;;;1.90;;
8938;SDS011;4504;48.810;9.172;2022-08-01T11:12:49;97.50;;;1.93;;
8938;SDS011;4504;48.810;9.172;2022-08-01T11:15:20;97.80;;;2.00;;
8938;SDS011;4504;48.810;9.172;2022-08-01T11:17:51;99.17;;;1.70;;
8938;SDS011;4504;48.810;9.172;2022-08-01T11:20:19;97.73;;;1.93;;
8938;SDS011;4504;48.810;9.172;2022-08-01T11:31:44;97.47;;;1.90;;
8938;SDS011;4504;48.810;9.172;2022-08-01T11:34:11;96.63;;;2.00;;
8938;SDS011;4504;48.810;9.172;2022-08-01T11:36:38;97.97;;;1.90;;
8938;SDS011;4504;48.810;9.172;2022-08-01T11:39:15;97.50;;;1.70;;
8938;SDS011;4504;48.810;9.172;2022-08-01T11:41:45;97.20;;;1.83;;
8938;SDS011;4504;48.810;9.172;2022-08-01T11:44:14;98.17;;;2.03;;
8938;SDS011;4504;48.810;9.172;2022-08-01T11:46:47;97.00;;;1.63;;
8938;SDS011;4504;48.810;9.172;2022-08-01T11:49:29;96.37;;;1.70;;
8938;SDS011;4504;48.810;9.172;2022-08-01T11:52:24;97.70;;;1.60;;
8938;SDS011;4504;48.810;9.172;2022-08-01T11:54:53;96.73;;;1.60;;
8938;SDS011;4504;48.810;9.172;2022-08-01T11:57:23;96.70;;;1.67;;
8938;SDS011;4504;48.810;9.172;2022-08-01T11:59:52;96.07;;;1.70;;
8938;SDS011;4504;48.810;9.172;2022-08-01T12:02:21;97.47;;;1.67;;
8938;SDS011;4504;48.810;9.172;2022-08-01T12:04:50;97.80;;;1.63;;
8938;SDS011;4504;48.810;9.172;2022-08-01T12:07:19;97.17;;;1.90;;
8938;SDS011;4504;48.810;9.172;2022-08-01T12:09:47;97.70;;;2.00;;
8938;SDS011;4504;48.810;9.172;2022-08-01T12:12:23;95.97;;;1.70;;
8938;SDS011;4504;48.810;9.172;2022-08-01T12:14:54;95.47;;;1.70;;
8938;SDS011;4504;48.810;9.172;2022-08-01T12:17:32;99.50;;;1.70;;
8938;SDS011;4504;48.810;9.172;2022-08-01T12:20:04;96.80;;;2.10;;
8938;SDS011;4504;48.810;9.172;2022-08-01T12:22:33;100.07;;;1.70;;
8938;SDS011;4504;48.810;9.172;2022-08-01T12:25:07;95.80;;;1.60;;
8938;SDS011;4504;48.810;9.172;2022-08-01T12:27:37;96.30;;;1.60;;
8938;SDS011;4504;48.810;9.172;2022-08-01T12:30:06;96.17;;;1.93;;
8938;SDS011;4504;48.810;9.172;2022-08-01T12:32:35;95.90;;;1.60;;
8938;SDS011;4504;48.810;9.172;2022-08-01T12:35:04;96.27;;;1.70;;
8938;SDS011;4504;48.810;9.172;2022-08-01T12:37:34;96.07;;;1.77;;
8938;SDS011;4504;48.810;9.172;2022-08-01T12:40:06;97.03;;;1.93;;
8938;SDS011;4504;48.810;9.172;2022-08-01T12:42:38;96.60;;;2.00;;
8938;SDS011;4504;48.810;9.172;2022-08-01T12:45:06;95.30;;;1.80;;
8938;SDS011;4504;48.810;9.172;2022-08-01T12:47:35;96.03;;;1.70;;
8938;SDS011;4504;48.810;9.172;2022-08-01T12:50:04;95.57;;;1.80;;
8938;SDS011;4504;48.810;9.172;2022-08-01T12:52:33;98.10;;;2.00;;
8938;SDS011;4504;48.810;9.172;2022-08-01T12:55:04;95.47;;;1.77;;
8938;SDS011;4504;48.810;9.172;2022-08-01T12:57:34;96.37;;;1.97;;
8938;SDS011;4504;48.810;9.172;2022-08-01T13:00:06;95.67;;;1.60;;
8938;SDS011;4504;48.810;9.172;2022-08-01T13:02:37;95.00;;;1.63;;
8938;SDS011;4504;48.810;9.172;2022-08-01T13:05:05;93.73;;;1.57;;
8938;SDS011;4504;48.810;9.172;2022-08-01T13:07:34;102.90;;;1.60;;
8938;SDS011;4504;48.810;9.172;2022-08-01T13:10:07;95.93;;;1.63;;
8938;SDS011;4504;48.810;9.172;2022-08-01T13:12:34;95.87;;;1.60;;
8938;SDS011;4504;48.810;9.172;2022-08-01T13:15:17;96.37;;;1.70;;
8938;SDS011;4504;48.810;9.172;2022-08-01T13:17:46;95.33;;;1.50;;
8938;SDS011;4504;48.810;9.172;2022-08-01T13:20:25;96.17;;;1.80;;
8938;SDS011;4504;48.810;9.172;2022-08-01T13:23:10;96.80;;;2.00;;
8938;SDS011;4504;48.810;9.172;2022-08-01T13:25:49;95.17;;;1.57;;
8938;SDS011;4504;48.810;9.172;2022-08-01T13:28:18;96.70;;;2.00;;
8938;SDS011;4504;48.810;9.172;2022-08-01T13:30:52;98.20;;;1.50;;
8938;SDS011;4504;48.810;9.172;2022-08-01T13:33:23;95.60;;;1.60;;
8938;SDS011;4504;48.810;9.172;2022-08-01T13:35:51;94.97;;;1.70;;
8938;SDS011;4504;48.810;9.172;2022-08-01T13:38:19;97.20;;;1.90;;
8938;SDS011;4504;48.810;9.172;2022-08-01T13:41:07;95.40;;;1.80;;
8938;SDS011;4504;48.810;9.172;2022-08-01T13:43:34;95.90;;;1.80;;
8938;SDS011;4504;48.810;9.172;2022-08-01T13:46:03;95.57;;;1.43;;
8938;SDS011;4504;48.810;9.172;2022-08-01T13:48:31;96.03;;;1.57;;
8938;SDS011;4504;48.810;9.172;2022-08-01T13:50:58;96.40;;;1.70;;
8938;SDS011;4504;48.810;9.172;2022-08-01T13:53:26;94.17;;;1.50;;
8938;SDS011;4504;48.810;9.172;2022-08-01T13:55:53;95.57;;;1.53;;
8938;SDS011;4504;48.810;9.172;2022-08-01T13:58:21;96.23;;;1.80;;
8938;SDS011;4504;48.810;9.172;2022-08-01T14:00:48;94.90;;;1.70;;
8938;SDS011;4504;48.810;9.172;2022-08-01T14:03:16;94.77;;;1.33;;
8938;SDS011;4504;48.810;9.172;2022-08-01T14:05:43;96.17;;;1.47;;
8938;SDS011;4504;48.810;9.172;2022-08-01T14:08:10;95.40;;;1.63;;
8938;SDS011;4504;48.810;9.172;2022-08-01T14:10:38;94.60;;;1.33;;
8938;SDS011;4504;48.810;9.172;2022-08-01T14:13:05;94.87;;;1.93;;
8938;SDS011;4504;48.810;9.172;2022-08-01T14:15:32;95.13;;;1.70;;
8938;SDS011;4504;48.810;9.172;2022-08-01T14:17:59;95.90;;;1.80;;
8938;SDS011;4504;48.810;9.172;2022-08-01T14:20:27;95.03;;;1.63;;
8938;SDS011;4504;48.810;9.172;2022-08-01T14:22:55;95.07;;;1.70;;
8938;SDS011;4504;48.810;9.172;2022-08-01T14:25:22;103.53;;;1.57;;
8938;SDS011;4504;48.810;9.172;2022-08-01T14:27:49;93.97;;;1.50;;
8938;SDS011;4504;48.810;9.172;2022-08-01T14:30:16;96.17;;;1.67;;
8938;SDS011;4504;48.810;9.172;2022-08-01T14:32:43;95.10;;;1.40;;
8938;SDS011;4504;48.810;9.172;2022-08-01T14:35:10;95.30;;;1.70;;
8938;SDS011;4504;48.810;9.172;2022-08-01T14:37:38;96.10;;;1.50;;
8938;SDS011;4504;48.810;9.172;2022-08-01T14:40:06;95.47;;;1.43;;
8938;SDS011;4504;48.810;9.172;2022-08-01T14:42:34;95.37;;;1.30;;
8938;SDS011;4504;48.810;9.172;2022-08-01T14:45:02;94.63;;;1.63;;
8938;SDS011;4504;48.810;9.172;2022-08-01T14:47:34;96.80;;;1.60;;
8938;SDS011;4504;48.810;9.172;2022-08-01T14:50:02;95.47;;;1.50;;
8938;SDS011;4504;48.810;9.172;2022-08-01T14:52:29;97.37;;;1.87;;
8938;SDS011;4504;48.810;9.172;2022-08-01T14:54:58;95.80;;;1.83;;
8938;SDS011;4504;48.810;9.172;2022-08-01T14:57:25;95.97;;;1.60;;
8938;SDS011;4504;48.810;9.172;2022-08-01T14:59:52;95.60;;;1.40;;
8938;SDS011;4504;48.810;9.172;2022-08-01T15:02:20;95.63;;;1.40;;
8938;SDS011;4504;48.810;9.172;2022-08-01T15:04:50;95.10;;;1.57;;
8938;SDS011;4504;48.810;9.172;2022-08-01T15:07:18;94.70;;;1.40;;
8938;SDS011;4504;48.810;9.172;2022-08-01T15:09:45;94.90;;;1.43;;
8938;SDS011;4504;48.810;9.172;2022-08-01T15:12:13;94.80;;;1.43;;
8938;SDS011;4504;48.810;9.172;2022-08-01T15:14:40;95.33;;;1.50;;